sensor_id;sensor_type;location;lat;lon;timestamp;pressure;altitude;pressure_sealevel;temperature;humidity
13719;BME280;6931;51.100;17.068;2022-08-14T00:01:01;99955.88;;;21.93;88.51
13719;BME280;6931;51.100;17.068;2022-08-14T00:03:35;99944.16;;;21.67;90.19
13719;BME280;6931;51.100;17.068;2022-08-14T00:06:03;99950.06;;;21.45;92.62
13719;BME280;6931;51.100;17.068;2022-08-14T00:08:49;99938.28;;;21.47;92.45
13719;BME280;6931;51.100;17.068;2022-08-14T00:11:16;99939.97;;;21.53;93.11
13719;BME280;6931;51.100;17.068;2022-08-14T00:13:43;99937.16;;;21.53;93.14
13719;BME280;6931;51.100;17.068;2022-08-14T00:16:18;99933.47;;;21.29;95.96
13719;BME280;6931;51.100;17.068;2022-08-14T00:19:05;99922.91;;;21.30;96.15
13719;BME280;6931;51.100;17.068;2022-08-14T00:21:50;99920.31;;;21.08;98.19
13719;BME280;6931;51.100;17.068;2022-08-14T00:24:19;99920.16;;;20.94;100.00
13719;BME280;6931;51.100;17.068;2022-08-14T00:26:55;99912.28;;;20.89;100.00
13719;BME280;6931;51.100;17.068;2022-08-14T00:29:31;99901.78;;;20.80;100.00
13719;BME280;6931;51.100;17.068;2022-08-14T00:32:06;99905.66;;;20.92;100.00
13719;BME280;6931;51.100;17.068;2022-08-14T00:34:53;99901.72;;;21.07;100.00
13719;BME280;6931;51.100;17.068;2022-08-14T00:37:22;99908.31;;;21.22;98.88
13719;BME280;6931;51.100;17.068;2022-08-14T00:39:48;99902.38;;;21.02;100.00
13719;BME280;6931;51.100;17.068;2022-08-14T00:42:21;99902.59;;;21.31;98.15
13719;BME280;6931;51.100;17.068;2022-08-14T00:45:10;99912.78;;;21.47;97.02
13719;BME280;6931;51.100;17.068;2022-08-14T00:47:41;99900.94;;;21.48;96.64
13719;BME280;6931;51.100;17.068;2022-08-14T00:50:13;99903.97;;;21.45;97.36
13719;BME280;6931;51.100;17.068;2022-08-14T00:52:50;99900.59;;;21.55;96.28
13719;BME280;6931;51.100;17.068;2022-08-14T00:55:19;99894.75;;;21.59;95.61
13719;BME280;6931;51.100;17.068;2022-08-14T00:57:46;99888.75;;;21.66;94.83
13719;BME280;6931;51.100;17.068;2022-08-14T01:00:37;99891.69;;;21.72;94.38
13719;BME280;6931;51.100;17.068;2022-08-14T01:03:18;99895.91;;;21.76;94.00
13719;BME280;6931;51.100;17.068;2022-08-14T01:05:49;99887.91;;;21.75;94.20
13719;BME280;6931;51.100;17.068;2022-08-14T01:08:23;99891.47;;;21.51;96.20
13719;BME280;6931;51.100;17.068;2022-08-14T01:11:11;99897.88;;;21.28;98.03
13719;BME280;6931;51.100;17.068;2022-08-14T01:13:45;99893.06;;;21.11;98.80
13719;BME280;6931;51.100;17.068;2022-08-14T01:16:26;99887.53;;;21.16;99.48
13719;BME280;6931;51.100;17.068;2022-08-14T01:18:57;99890.69;;;21.18;98.95
13719;BME280;6931;51.100;17.068;2022-08-14T01:21:45;99888.19;;;21.11;98.68
13719;BME280;6931;51.100;17.068;2022-08-14T01:24:19;99894.66;;;21.03;99.19
13719;BME280;6931;51.100;17.068;2022-08-14T01:26:57;99885.69;;;20.95;98.84
13719;BME280;6931;51.100;17.068;2022-08-14T01:29:28;99887.44;;;21.02;98.98
13719;BME280;6931;51.100;17.068;2022-08-14T01:32:16;99887.09;;;21.09;98.58
13719;BME280;6931;51.100;17.068;2022-08-14T01:34:54;99888.34;;;21.17;98.09
13719;BME280;6931;51.100;17.068;2022-08-14T01:37:45;99879.22;;;21.13;98.19
13719;BME280;6931;51.100;17.068;2022-08-14T01:40:25;99883.34;;;21.03;97.24
13719;BME280;6931;51.100;17.068;2022-08-14T01:43:10;99879.72;;;21.02;96.48
13719;BME280;6931;51.100;17.068;2022-08-14T01:45:41;99883.34;;;21.03;97.89
13719;BME280;6931;51.100;17.068;2022-08-14T01:48:14;99834.81;;;20.68;97.67
13719;BME280;6931;51.100;17.068;2022-08-14T01:50:46;99889.16;;;20.90;97.01
13719;BME280;6931;51.100;17.068;2022-08-14T01:53:12;99892.63;;;20.94;96.82
13719;BME280;6931;51.100;17.068;2022-08-14T01:55:39;99881.94;;;20.98;97.35
13719;BME280;6931;51.100;17.068;2022-08-14T01:58:07;99877.03;;;21.08;96.59
13719;BME280;6931;51.100;17.068;2022-08-14T02:00:48;99873.03;;;21.23;96.20
13719;BME280;6931;51.100;17.068;2022-08-14T02:03:27;99876.84;;;21.11;96.97
13719;BME280;6931;51.100;17.068;2022-08-14T02:05:58;99871.34;;;21.17;97.44
13719;BME280;6931;51.100;17.068;2022-08-14T02:08:46;99881.72;;;21.11;96.01
13719;BME280;6931;51.100;17.068;2022-08-14T02:11:22;99878.28;;;21.16;95.84
13719;BME280;6931;51.100;17.068;2022-08-14T02:14:03;99880.56;;;21.26;95.42
13719;BME280;6931;51.100;17.068;2022-08-14T02:16:40;99879.34;;;21.18;95.08
13719;BME280;6931;51.100;17.068;2022-08-14T02:19:14;99869.06;;;21.30;94.74
13719;BME280;6931;51.100;17.068;2022-08-14T02:21:46;99877.53;;;21.39;94.31
13719;BME280;6931;51.100;17.068;2022-08-14T02:24:19;99864.31;;;21.36;94.32
13719;BME280;6931;51.100;17.068;2022-08-14T02:27:06;99866.19;;;21.39;93.96
13719;BME280;6931;51.100;17.068;2022-08-14T02:29:54;99865.22;;;21.09;93.83
13719;BME280;6931;51.100;17.068;2022-08-14T02:32:29;99863.72;;;20.81;95.46
13719;BME280;6931;51.100;17.068;2022-08-14T02:35:08;99853.81;;;20.77;96.48
13719;BME280;6931;51.100;17.068;2022-08-14T02:37:39;99842.97;;;20.66;96.56
13719;BME280;6931;51.100;17.068;2022-08-14T02:40:15;99841.09;;;20.63;96.85
13719;BME280;6931;51.100;17.068;2022-08-14T02:42:42;99844.41;;;20.71;97.25
13719;BME280;6931;51.100;17.068;2022-08-14T02:45:24;99848.09;;;20.95;95.88
13719;BME280;6931;51.100;17.068;2022-08-14T02:48:04;99849.81;;;20.92;95.35
13719;BME280;6931;51.100;17.068;2022-08-14T02:50:36;99844.31;;;21.07;94.81
13719;BME280;6931;51.100;17.068;2022-08-14T02:53:05;99842.59;;;21.00;94.22
13719;BME280;6931;51.100;17.068;2022-08-14T02:55:34;99843.38;;;21.01;94.77
13719;BME280;6931;51.100;17.068;2022-08-14T02:58:01;99851.06;;;21.09;94.08
13719;BME280;6931;51.100;17.068;2022-08-14T03:00:33;99846.59;;;20.76;95.60
13719;BME280;6931;51.100;17.068;2022-08-14T03:03:05;99842.81;;;20.70;96.24
13719;BME280;6931;51.100;17.068;2022-08-14T03:05:34;99841.16;;;20.36;98.14
13719;BME280;6931;51.100;17.068;2022-08-14T03:08:09;99847.28;;;20.34;99.37
13719;BME280;6931;51.100;17.068;2022-08-14T03:10:41;99846.19;;;20.41;98.72
13719;BME280;6931;51.100;17.068;2022-08-14T03:13:17;99837.47;;;20.63;97.35
13719;BME280;6931;51.100;17.068;2022-08-14T03:15:46;99837.78;;;20.74;96.02
13719;BME280;6931;51.100;17.068;2022-08-14T03:18:25;99830.75;;;20.51;97.85
13719;BME280;6931;51.100;17.068;2022-08-14T03:21:04;99833.69;;;20.75;96.22
13719;BME280;6931;51.100;17.068;2022-08-14T03:23:31;99835.31;;;20.48;97.54
13719;BME280;6931;51.100;17.068;2022-08-14T03:26:03;99838.13;;;20.58;96.45
13719;BME280;6931;51.100;17.068;2022-08-14T03:28:32;99831.56;;;20.52;97.54
13719;BME280;6931;51.100;17.068;2022-08-14T03:31:02;99828.31;;;20.77;95.38
13719;BME280;6931;51.100;17.068;2022-08-14T03:33:38;99826.44;;;20.83;94.84
13719;BME280;6931;51.100;17.068;2022-08-14T03:36:08;99828.94;;;20.90;94.19
13719;BME280;6931;51.100;17.068;2022-08-14T03:38:58;99818.38;;;20.90;93.71
13719;BME280;6931;51.100;17.068;2022-08-14T03:41:45;99824.97;;;20.96;93.69
13719;BME280;6931;51.100;17.068;2022-08-14T03:44:13;99817.72;;;20.95;93.38
13719;BME280;6931;51.100;17.068;2022-08-14T03:47:00;99812.22;;;20.92;93.13
13719;BME280;6931;51.100;17.068;2022-08-14T03:49:28;99809.88;;;20.99;92.75
13719;BME280;6931;51.100;17.068;2022-08-14T03:51:58;99814.56;;;21.02;92.13
13719;BME280;6931;51.100;17.068;2022-08-14T03:54:29;99813.47;;;21.09;91.74
13719;BME280;6931;51.100;17.068;2022-08-14T03:56:57;99815.81;;;21.10;91.37
13719;BME280;6931;51.100;17.068;2022-08-14T03:59:32;99823.22;;;21.08;91.42
13719;BME280;6931;51.100;17.068;2022-08-14T04:02:00;99816.75;;;21.07;91.61
13719;BME280;6931;51.100;17.068;2022-08-14T04:04:49;99811.03;;;21.16;91.01
13719;BME280;6931;51.100;17.068;2022-08-14T04:07:15;99817.66;;;21.22;90.50
13719;BME280;6931;51.100;17.068;2022-08-14T04:09:44;99814.53;;;21.11;91.03
13719;BME280;6931;51.100;17.068;2022-08-14T04:12:11;99808.34;;;21.22;90.66
13719;BME280;6931;51.100;17.068;2022-08-14T04:14:38;99809.22;;;21.04;91.36
13719;BME280;6931;51.100;17.068;2022-08-14T04:17:07;99807.63;;;21.12;91.09
13719;BME280;6931;51.100;17.068;2022-08-14T04:19:36;99811.84;;;21.17;90.97
13719;BME280;6931;51.100;17.068;2022-08-14T04:22:03;99821.78;;;21.12;90.95
13719;BME280;6931;51.100;17.068;2022-08-14T04:24:32;99818.47;;;21.14;91.36
13719;BME280;6931;51.100;17.068;2022-08-14T04:27:08;99809.81;;;21.17;91.51
13719;BME280;6931;51.100;17.068;2022-08-14T04:29:40;99817.50;;;21.17;91.54
13719;BME280;6931;51.100;17.068;2022-08-14T04:32:09;99818.31;;;21.17;91.27
13719;BME280;6931;51.100;17.068;2022-08-14T04:34:56;99799.13;;;21.12;91.70
13719;BME280;6931;51.100;17.068;2022-08-14T04:37:23;99818.44;;;21.23;91.08
13719;BME280;6931;51.100;17.068;2022-08-14T04:40:11;99818.66;;;21.10;91.54
13719;BME280;6931;51.100;17.068;2022-08-14T04:43:00;99812.94;;;21.19;91.40
13719;BME280;6931;51.100;17.068;2022-08-14T04:45:46;99813.53;;;20.82;92.64
13719;BME280;6931;51.100;17.068;2022-08-14T04:48:17;99815.06;;;20.92;93.36
13719;BME280;6931;51.100;17.068;2022-08-14T04:51:13;99813.16;;;20.98;93.23
13719;BME280;6931;51.100;17.068;2022-08-14T04:53:43;99821.25;;;20.81;93.10
13719;BME280;6931;51.100;17.068;2022-08-14T04:56:15;99813.97;;;20.98;93.43
13719;BME280;6931;51.100;17.068;2022-08-14T04:59:02;99805.41;;;21.07;92.86
13719;BME280;6931;51.100;17.068;2022-08-14T05:01:39;99808.88;;;21.11;93.77
13719;BME280;6931;51.100;17.068;2022-08-14T05:04:19;99805.16;;;21.29;93.05
13719;BME280;6931;51.100;17.068;2022-08-14T05:06:48;99806.44;;;21.28;93.10
13719;BME280;6931;51.100;17.068;2022-08-14T05:09:19;99764.97;;;21.16;93.00
13719;BME280;6931;51.100;17.068;2022-08-14T05:11:46;99803.47;;;21.46;93.03
13719;BME280;6931;51.100;17.068;2022-08-14T05:14:17;99792.28;;;21.28;92.40
13719;BME280;6931;51.100;17.068;2022-08-14T05:17:04;99805.81;;;21.24;93.33
13719;BME280;6931;51.100;17.068;2022-08-14T05:19:32;99805.69;;;21.18;94.55
13719;BME280;6931;51.100;17.068;2022-08-14T05:22:09;99794.16;;;20.89;93.25
13719;BME280;6931;51.100;17.068;2022-08-14T05:24:43;99793.09;;;20.78;92.40
13719;BME280;6931;51.100;17.068;2022-08-14T05:27:10;99789.47;;;20.77;94.39
13719;BME280;6931;51.100;17.068;2022-08-14T05:29:37;99791.34;;;20.80;92.62
13719;BME280;6931;51.100;17.068;2022-08-14T05:32:04;99791.97;;;20.84;92.58
13719;BME280;6931;51.100;17.068;2022-08-14T05:34:33;99794.47;;;21.00;92.46
13719;BME280;6931;51.100;17.068;2022-08-14T05:37:00;99794.47;;;20.91;91.95
13719;BME280;6931;51.100;17.068;2022-08-14T05:39:29;99801.19;;;20.94;91.86
13719;BME280;6931;51.100;17.068;2022-08-14T05:41:57;99800.72;;;20.95;92.07
13719;BME280;6931;51.100;17.068;2022-08-14T05:44:26;99798.69;;;20.96;91.90
13719;BME280;6931;51.100;17.068;2022-08-14T05:46:57;99797.28;;;20.91;91.91
13719;BME280;6931;51.100;17.068;2022-08-14T05:49:23;99792.09;;;20.99;92.32
13719;BME280;6931;51.100;17.068;2022-08-14T05:51:57;99783.66;;;20.81;91.90
13719;BME280;6931;51.100;17.068;2022-08-14T05:54:26;99786.66;;;20.77;91.78
13719;BME280;6931;51.100;17.068;2022-08-14T05:57:02;99786.94;;;20.88;92.15
13719;BME280;6931;51.100;17.068;2022-08-14T05:59:29;99789.25;;;20.99;91.94
13719;BME280;6931;51.100;17.068;2022-08-14T06:02:05;99798.59;;;20.81;92.35
13719;BME280;6931;51.100;17.068;2022-08-14T06:04:32;99797.94;;;20.86;92.39
13719;BME280;6931;51.100;17.068;2022-08-14T06:06:59;99795.59;;;20.85;92.83
13719;BME280;6931;51.100;17.068;2022-08-14T06:09:27;99788.94;;;20.97;93.03
13719;BME280;6931;51.100;17.068;2022-08-14T06:12:00;99773.84;;;21.00;93.68
13719;BME280;6931;51.100;17.068;2022-08-14T06:14:27;99780.41;;;21.06;92.79
13719;BME280;6931;51.100;17.068;2022-08-14T06:16:55;99773.00;;;21.08;92.34
13719;BME280;6931;51.100;17.068;2022-08-14T06:19:21;99773.81;;;21.09;92.76
13719;BME280;6931;51.100;17.068;2022-08-14T06:21:49;99772.25;;;20.99;92.44
13719;BME280;6931;51.100;17.068;2022-08-14T06:24:24;99760.00;;;21.02;92.65
13719;BME280;6931;51.100;17.068;2022-08-14T06:26:51;99766.41;;;21.02;93.14
13719;BME280;6931;51.100;17.068;2022-08-14T06:29:29;99769.75;;;21.01;92.73
13719;BME280;6931;51.100;17.068;2022-08-14T06:31:59;99767.69;;;21.01;92.29
13719;BME280;6931;51.100;17.068;2022-08-14T06:34:45;99774.63;;;21.00;92.40
13719;BME280;6931;51.100;17.068;2022-08-14T06:37:54;99770.13;;;21.17;92.33
13719;BME280;6931;51.100;17.068;2022-08-14T06:42:55;99778.16;;;21.19;93.49
13719;BME280;6931;51.100;17.068;2022-08-14T06:45:29;99756.88;;;21.23;93.54
13719;BME280;6931;51.100;17.068;2022-08-14T06:47:56;99762.72;;;21.20;94.33
13719;BME280;6931;51.100;17.068;2022-08-14T06:50:24;99757.34;;;21.22;93.99
13719;BME280;6931;51.100;17.068;2022-08-14T06:52:56;99750.97;;;21.12;93.80
13719;BME280;6931;51.100;17.068;2022-08-14T06:55:23;99748.72;;;20.84;93.09
13719;BME280;6931;51.100;17.068;2022-08-14T06:57:55;99759.50;;;21.03;93.17
13719;BME280;6931;51.100;17.068;2022-08-14T07:00:25;99760.38;;;21.18;92.72
13719;BME280;6931;51.100;17.068;2022-08-14T07:02:57;99762.84;;;21.25;92.84
13719;BME280;6931;51.100;17.068;2022-08-14T07:05:44;99759.34;;;21.30;93.70
13719;BME280;6931;51.100;17.068;2022-08-14T07:08:28;99756.88;;;21.23;92.77
13719;BME280;6931;51.100;17.068;2022-08-14T07:11:00;99758.38;;;21.33;92.96
13719;BME280;6931;51.100;17.068;2022-08-14T07:13:30;99759.97;;;21.34;91.53
13719;BME280;6931;51.100;17.068;2022-08-14T07:15:58;99756.16;;;21.37;91.47
13719;BME280;6931;51.100;17.068;2022-08-14T07:18:32;99756.94;;;21.38;92.02
13719;BME280;6931;51.100;17.068;2022-08-14T07:21:00;99767.63;;;21.43;91.09
13719;BME280;6931;51.100;17.068;2022-08-14T07:23:28;99760.25;;;21.36;91.47
13719;BME280;6931;51.100;17.068;2022-08-14T07:25:58;99759.72;;;21.47;90.98
13719;BME280;6931;51.100;17.068;2022-08-14T07:28:30;99765.47;;;21.52;91.22
13719;BME280;6931;51.100;17.068;2022-08-14T07:31:04;99773.22;;;21.52;91.59
13719;BME280;6931;51.100;17.068;2022-08-14T07:33:37;99755.91;;;21.50;91.57
13719;BME280;6931;51.100;17.068;2022-08-14T07:36:09;99760.00;;;21.49;91.86
13719;BME280;6931;51.100;17.068;2022-08-14T07:38:58;99750.84;;;21.54;91.64
13719;BME280;6931;51.100;17.068;2022-08-14T07:41:26;99757.78;;;21.53;91.72
13719;BME280;6931;51.100;17.068;2022-08-14T07:44:00;99745.75;;;21.58;90.97
13719;BME280;6931;51.100;17.068;2022-08-14T07:46:47;99744.53;;;21.74;90.54
13719;BME280;6931;51.100;17.068;2022-08-14T07:49:15;99753.59;;;21.87;90.77
13719;BME280;6931;51.100;17.068;2022-08-14T07:51:45;99741.78;;;21.88;89.96
13719;BME280;6931;51.100;17.068;2022-08-14T07:54:15;99736.22;;;21.94;89.91
13719;BME280;6931;51.100;17.068;2022-08-14T07:56:49;99737.16;;;21.91;89.31
13719;BME280;6931;51.100;17.068;2022-08-14T07:59:21;99741.03;;;22.02;90.54
13719;BME280;6931;51.100;17.068;2022-08-14T08:02:11;99738.75;;;22.06;89.27
13719;BME280;6931;51.100;17.068;2022-08-14T08:04:47;99726.91;;;22.08;89.50
13719;BME280;6931;51.100;17.068;2022-08-14T08:07:15;99720.25;;;21.96;88.22
13719;BME280;6931;51.100;17.068;2022-08-14T08:09:47;99730.25;;;22.06;88.26
13719;BME280;6931;51.100;17.068;2022-08-14T08:12:20;99733.97;;;22.27;87.94
13719;BME280;6931;51.100;17.068;2022-08-14T08:14:56;99737.97;;;22.49;87.02
13719;BME280;6931;51.100;17.068;2022-08-14T08:17:34;99731.13;;;22.70;86.00
13719;BME280;6931;51.100;17.068;2022-08-14T08:20:16;99729.00;;;22.51;84.69
13719;BME280;6931;51.100;17.068;2022-08-14T08:22:48;99730.94;;;22.74;84.18
13719;BME280;6931;51.100;17.068;2022-08-14T08:25:23;99719.03;;;23.05;83.92
13719;BME280;6931;51.100;17.068;2022-08-14T08:27:59;99736.00;;;23.19;85.16
13719;BME280;6931;51.100;17.068;2022-08-14T08:30:38;99735.47;;;23.01;84.21
13719;BME280;6931;51.100;17.068;2022-08-14T08:33:16;99721.28;;;23.01;84.25
13719;BME280;6931;51.100;17.068;2022-08-14T08:35:44;99721.19;;;22.95;83.91
13719;BME280;6931;51.100;17.068;2022-08-14T08:38:18;99723.13;;;23.04;85.24
13719;BME280;6931;51.100;17.068;2022-08-14T08:41:05;99719.94;;;23.16;86.56
13719;BME280;6931;51.100;17.068;2022-08-14T08:43:37;99719.16;;;23.16;84.00
13719;BME280;6931;51.100;17.068;2022-08-14T08:46:06;99720.75;;;23.17;81.60
13719;BME280;6931;51.100;17.068;2022-08-14T08:48:51;99715.41;;;23.24;82.12
13719;BME280;6931;51.100;17.068;2022-08-14T08:54:07;99706.97;;;22.95;82.01
13719;BME280;6931;51.100;17.068;2022-08-14T08:56:48;99701.81;;;22.94;82.31
13719;BME280;6931;51.100;17.068;2022-08-14T08:59:21;99706.19;;;22.95;82.78
13719;BME280;6931;51.100;17.068;2022-08-14T09:02:02;99698.97;;;22.94;81.35
13719;BME280;6931;51.100;17.068;2022-08-14T09:04:42;99704.84;;;22.90;81.75
13719;BME280;6931;51.100;17.068;2022-08-14T09:07:25;99697.13;;;22.91;82.43
13719;BME280;6931;51.100;17.068;2022-08-14T09:09:54;99707.28;;;22.97;83.90
13719;BME280;6931;51.100;17.068;2022-08-14T09:12:27;99700.50;;;22.95;85.86
13719;BME280;6931;51.100;17.068;2022-08-14T09:15:04;99695.81;;;22.92;85.21
13719;BME280;6931;51.100;17.068;2022-08-14T09:17:38;99693.69;;;22.87;83.61
13719;BME280;6931;51.100;17.068;2022-08-14T09:20:07;99701.22;;;22.90;85.69
13719;BME280;6931;51.100;17.068;2022-08-14T09:22:38;99686.16;;;22.84;86.01
13719;BME280;6931;51.100;17.068;2022-08-14T09:25:17;99691.25;;;22.80;88.74
13719;BME280;6931;51.100;17.068;2022-08-14T09:27:45;99689.00;;;22.84;91.89
13719;BME280;6931;51.100;17.068;2022-08-14T09:30:12;99683.53;;;22.80;91.75
13719;BME280;6931;51.100;17.068;2022-08-14T09:41:10;99672.63;;;23.13;90.76
13719;BME280;6931;51.100;17.068;2022-08-14T09:44:06;99671.13;;;23.18;91.20
13719;BME280;6931;51.100;17.068;2022-08-14T09:46:34;99670.34;;;23.17;89.78
13719;BME280;6931;51.100;17.068;2022-08-14T09:49:06;99663.75;;;23.26;90.50
13719;BME280;6931;51.100;17.068;2022-08-14T09:51:42;99658.56;;;23.24;90.02
13719;BME280;6931;51.100;17.068;2022-08-14T09:54:34;99661.81;;;23.17;88.21
13719;BME280;6931;51.100;17.068;2022-08-14T09:57:03;99665.97;;;23.16;88.49
13719;BME280;6931;51.100;17.068;2022-08-14T09:59:45;99666.53;;;23.20;90.09
13719;BME280;6931;51.100;17.068;2022-08-14T10:05:31;99653.78;;;23.16;92.87
13719;BME280;6931;51.100;17.068;2022-08-14T10:07:59;99653.88;;;23.21;93.17
13719;BME280;6931;51.100;17.068;2022-08-14T10:10:38;99655.59;;;23.13;92.17
13719;BME280;6931;51.100;17.068;2022-08-14T10:13:20;99657.13;;;22.94;92.03
13719;BME280;6931;51.100;17.068;2022-08-14T10:15:49;99664.16;;;22.99;93.05
13719;BME280;6931;51.100;17.068;2022-08-14T10:18:18;99664.28;;;22.90;93.75
13719;BME280;6931;51.100;17.068;2022-08-14T10:23:22;99674.41;;;22.91;95.27
13719;BME280;6931;51.100;17.068;2022-08-14T10:25:56;99662.75;;;22.89;94.82
13719;BME280;6931;51.100;17.068;2022-08-14T10:28:24;99667.91;;;22.90;94.57
13719;BME280;6931;51.100;17.068;2022-08-14T10:31:26;99677.72;;;22.89;94.90
13719;BME280;6931;51.100;17.068;2022-08-14T10:34:08;99678.25;;;22.73;95.87
13719;BME280;6931;51.100;17.068;2022-08-14T10:36:41;99673.44;;;22.79;97.41
13719;BME280;6931;51.100;17.068;2022-08-14T10:39:22;99662.53;;;22.92;98.41
13719;BME280;6931;51.100;17.068;2022-08-14T10:41:59;99651.81;;;23.02;96.42
13719;BME280;6931;51.100;17.068;2022-08-14T10:44:44;99660.84;;;23.20;95.15
13719;BME280;6931;51.100;17.068;2022-08-14T10:47:13;99647.69;;;23.23;93.72
13719;BME280;6931;51.100;17.068;2022-08-14T10:50:00;99596.97;;;22.96;93.07
13719;BME280;6931;51.100;17.068;2022-08-14T10:52:29;99644.28;;;23.19;91.86
13719;BME280;6931;51.100;17.068;2022-08-14T10:55:15;99649.63;;;23.31;89.29
13719;BME280;6931;51.100;17.068;2022-08-14T11:00:20;99642.47;;;23.36;90.41
13719;BME280;6931;51.100;17.068;2022-08-14T11:03:09;99650.75;;;23.39;90.50
13719;BME280;6931;51.100;17.068;2022-08-14T11:05:49;99650.09;;;23.50;89.66
13719;BME280;6931;51.100;17.068;2022-08-14T11:08:31;99650.09;;;23.50;89.56
13719;BME280;6931;51.100;17.068;2022-08-14T11:11:02;99650.53;;;23.43;89.14
13719;BME280;6931;51.100;17.068;2022-08-14T11:13:30;99642.22;;;23.19;88.59
13719;BME280;6931;51.100;17.068;2022-08-14T11:15:59;99657.09;;;23.29;89.26
13719;BME280;6931;51.100;17.068;2022-08-14T11:18:27;99657.75;;;23.24;90.94
13719;BME280;6931;51.100;17.068;2022-08-14T11:21:05;99650.81;;;23.25;92.34
13719;BME280;6931;51.100;17.068;2022-08-14T11:23:37;99662.03;;;22.94;94.37
13719;BME280;6931;51.100;17.068;2022-08-14T11:26:11;99661.75;;;22.92;97.29
13719;BME280;6931;51.100;17.068;2022-08-14T11:28:41;99667.75;;;22.79;100.00
13719;BME280;6931;51.100;17.068;2022-08-14T11:31:18;99665.41;;;22.78;100.00
13719;BME280;6931;51.100;17.068;2022-08-14T11:33:52;99659.97;;;22.45;100.00
13719;BME280;6931;51.100;17.068;2022-08-14T11:36:26;99670.38;;;22.19;100.00
13719;BME280;6931;51.100;17.068;2022-08-14T11:39:21;99656.88;;;21.99;100.00
13719;BME280;6931;51.100;17.068;2022-08-14T11:42:06;99645.09;;;21.63;100.00
13719;BME280;6931;51.100;17.068;2022-08-14T11:44:58;99651.53;;;21.63;100.00
13719;BME280;6931;51.100;17.068;2022-08-14T11:47:26;99637.44;;;21.78;100.00
13719;BME280;6931;51.100;17.068;2022-08-14T11:50:40;99642.97;;;21.72;100.00
13719;BME280;6931;51.100;17.068;2022-08-14T11:53:05;99634.16;;;21.70;100.00
13719;BME280;6931;51.100;17.068;2022-08-14T11:55:37;99629.97;;;21.80;100.00
13719;BME280;6931;51.100;17.068;2022-08-14T11:58:08;99619.44;;;21.95;100.00
13719;BME280;6931;51.100;17.068;2022-08-14T12:00:50;99620.19;;;21.96;100.00
13719;BME280;6931;51.100;17.068;2022-08-14T12:03:19;99625.78;;;22.05;100.00
13719;BME280;6931;51.100;17.068;2022-08-14T12:06:14;99625.78;;;22.19;100.00
13719;BME280;6931;51.100;17.068;2022-08-14T12:08:57;99626.63;;;22.25;100.00
13719;BME280;6931;51.100;17.068;2022-08-14T12:11:36;99627.59;;;22.37;100.00
13719;BME280;6931;51.100;17.068;2022-08-14T12:14:09;99627.47;;;22.46;100.00
13719;BME280;6931;51.100;17.068;2022-08-14T12:17:00;99624.53;;;22.55;100.00
13719;BME280;6931;51.100;17.068;2022-08-14T12:19:27;99611.63;;;22.54;100.00
13719;BME280;6931;51.100;17.068;2022-08-14T12:22:01;99611.53;;;22.63;100.00
13719;BME280;6931;51.100;17.068;2022-08-14T12:24:28;99612.34;;;22.69;100.00
13719;BME280;6931;51.100;17.068;2022-08-14T12:27:02;99606.88;;;22.65;100.00
13719;BME280;6931;51.100;17.068;2022-08-14T12:29:29;99546.72;;;22.47;100.00
13719;BME280;6931;51.100;17.068;2022-08-14T12:31:59;99592.53;;;22.89;100.00
13719;BME280;6931;51.100;17.068;2022-08-14T12:34:31;99598.19;;;23.09;100.00
13719;BME280;6931;51.100;17.068;2022-08-14T12:37:06;99594.91;;;23.62;100.00
13719;BME280;6931;51.100;17.068;2022-08-14T12:39:35;99587.44;;;23.90;100.00
13719;BME280;6931;51.100;17.068;2022-08-14T12:42:06;99582.59;;;23.96;100.00
13719;BME280;6931;51.100;17.068;2022-08-14T12:44:38;99582.53;;;23.91;98.19
13719;BME280;6931;51.100;17.068;2022-08-14T12:47:11;99585.28;;;24.05;97.94
13719;BME280;6931;51.100;17.068;2022-08-14T12:49:49;99583.84;;;24.21;96.16
13719;BME280;6931;51.100;17.068;2022-08-14T12:52:42;99582.44;;;24.42;95.85
13719;BME280;6931;51.100;17.068;2022-08-14T12:55:27;99568.97;;;24.79;98.11
13719;BME280;6931;51.100;17.068;2022-08-14T12:58:15;99574.81;;;24.64;98.85
13719;BME280;6931;51.100;17.068;2022-08-14T13:01:02;99585.25;;;24.36;98.68
13719;BME280;6931;51.100;17.068;2022-08-14T13:03:45;99597.81;;;24.19;98.03
13719;BME280;6931;51.100;17.068;2022-08-14T13:06:17;99597.78;;;23.88;97.61
13719;BME280;6931;51.100;17.068;2022-08-14T13:08:44;99596.81;;;23.96;96.76
13719;BME280;6931;51.100;17.068;2022-08-14T13:11:19;99592.03;;;23.82;96.07
13719;BME280;6931;51.100;17.068;2022-08-14T13:13:52;99591.75;;;23.29;94.49
13719;BME280;6931;51.100;17.068;2022-08-14T13:16:24;99586.03;;;23.09;94.25
13719;BME280;6931;51.100;17.068;2022-08-14T13:19:11;99585.09;;;23.17;95.32
13719;BME280;6931;51.100;17.068;2022-08-14T13:21:41;99577.84;;;23.36;94.22
13719;BME280;6931;51.100;17.068;2022-08-14T13:24:28;99568.06;;;23.37;94.21
13719;BME280;6931;51.100;17.068;2022-08-14T13:26:59;99565.50;;;23.19;95.53
13719;BME280;6931;51.100;17.068;2022-08-14T13:29:34;99558.16;;;23.33;95.22
13719;BME280;6931;51.100;17.068;2022-08-14T13:32:06;99558.28;;;23.44;94.73
13719;BME280;6931;51.100;17.068;2022-08-14T13:34:36;99565.03;;;23.46;94.93
13719;BME280;6931;51.100;17.068;2022-08-14T13:37:03;99550.34;;;23.48;94.38
13719;BME280;6931;51.100;17.068;2022-08-14T13:39:32;99545.41;;;23.48;93.96
13719;BME280;6931;51.100;17.068;2022-08-14T13:42:03;99548.38;;;23.34;93.91
13719;BME280;6931;51.100;17.068;2022-08-14T13:44:37;99548.31;;;23.28;94.37
13719;BME280;6931;51.100;17.068;2022-08-14T13:47:08;99551.31;;;23.45;93.60
13719;BME280;6931;51.100;17.068;2022-08-14T13:49:35;99540.16;;;23.41;92.86
13719;BME280;6931;51.100;17.068;2022-08-14T13:52:23;99530.81;;;23.35;92.41
13719;BME280;6931;51.100;17.068;2022-08-14T13:55:10;99530.34;;;23.17;91.76
13719;BME280;6931;51.100;17.068;2022-08-14T13:57:42;99536.94;;;23.28;92.05
13719;BME280;6931;51.100;17.068;2022-08-14T14:00:17;99521.81;;;23.17;92.01
13719;BME280;6931;51.100;17.068;2022-08-14T14:02:58;99538.00;;;23.11;93.01